クェゼリン環礁 の空港の天気 - METARとTAF

バックホルツ陸軍飛行場 ( PKWA / KWA ) - マーシャル諸島 クェゼリン環礁
飛行場実況気象(Metar)
観測時間08/11 19:00 MHT (08/11 07:00 UTC)
風向・風速北 2m/s
視程10km以上
天気現象
なし
気温28.2℃
湿度87%
気圧1011hPa
METARPKWA 110700Z AUTO 36003KT 10SM CLR 28/26 A2986 RMK AO2 T02820258
過去の天気等 Google飛行場航空写真 Wunderground天気予報

過去48時間のMETAR

飛行場予報(TAF)
発表時間: 8/11 17:24 MHT (8/11 05:24 UTC)
予報対象時間: 11日18時 MHT ~ 12日18時 MHT
風向・風速東北東 6m/s
視程10km以上
天気現象周辺でしゅう雨
全天の4割程度の雲 雲底高度 610m
全天の4割程度の雲 雲底高度 1220m
11日18時 MHT ~ 11日21時 MHT に一時的に
視程3220m
天気現象強いしゅう雨
全天の8割程度の雲 雲底高度 550m
全天の8割程度の雲 雲底高度 1070m
全天の8割程度の雲 雲底高度 1830m
PKWA 110524Z 1106/1206 06011KT P6SM VCSH SCT020 SCT040
TEMPO 1106/1109 2SM +SHRA BKN018 BKN035 BKN060